Maha Sarakham, Thailand
Current Conditions -  °F | °C
As of 8:00 PM on Sunday 21 Dec 2014 (Local Time) from VTUK Reporting Station
Clear Clear  
Wind Chill: 73°   Ceiling: Unl
Heat Index: 73°   Visibility: 6mi
Dew Point: 54°   Wind: 16mph
Humidity: 50%   Direction: 40°NE
Pressure: 30"   Gusts: NA
Location:  16.18°N, 103.29°E
Report Text: VTUK 211300Z 04014KT 010V070 CAVOK 23/12 Q1016 A3001RWY 03 INFO O
Loading
Personal Weather Stations






























Interactive Weather Map New forecast layout! Learn more

10-Day Weather Forecast

Advertisements
Track Severe Weather on mobile